Portada
METAR-TAF:

METAR-TAF

Aeroports :

Port Vila, Éfaté, Vanuatu

latitud: 17-42S, longitud: 168-18E, altitud: 20 m

Observació

L'informe es va fer fa 1 hora i 1 minuts, a les 08:00 UTC
Vent 6 kt del Est
Temperatura 25°C
Humitat 83%
Pressió 1014 hPa
Visibilitat 10 km o més
Núvols disperses a una alçada de 2000 ft

METAR: NVVV 050800Z 09006KT 9999 SCT020 25/22 Q1014

Hora: 20:01 (09:01 UTC)

Pronòstic

L'informe es va fer fa 4 hores i 1 minuts, a les 05:00 UTC
Pronòstic vàlid del 05 a les 06 UTC al 06 a les 06 UTC
Vent 15 kt del Est
Visibilitat 10 km o més
Núvols disperses a una alçada de 2000 ft

TAF: NVVV 050500Z 0506/0606 09015KT 9999 SCT020

Observacions i pronòstics meteorològics de més de 4000 aeroports (METAR i TAF).

Les estacions disponibles són els punts grocs i vermells al mapa.

Posi el ratolí al punt desitjat per veure el nom de l'estació.

Feu clic per veure les observacions i els pronòstics meteorològics.

Per canviar el mapa: feu clic els botons verds amb una creu de color negre per apropar; al botó verd amb un guió per allunyar la imatge; o en les fletxes verdes per a mapes adjacents.


METAR-TAF: